Alpine, Arkansas
Current Conditions -  °F | °C
As of 4:56 PM on Wednesday 17 Dec 2014 (Local Time) from KADF Reporting Station
Broken Clouds Broken Clouds  
Wind Chill: 35°   Ceiling: 7000
Heat Index: 40°   Visibility: 10mi
Dew Point: 35°   Wind: 7mph
Humidity: 82%   Direction: 70°ENE
Pressure: 30.21"   Gusts: NA
Location:  34.23°N, 93.38°W
Report Text: KADF 172256Z AUTO 07006KT 10SM BKN070 04/02 A3021 RMK AO2 T00440016 PRESFR SLP245
Loading
Personal Weather Stations






























Interactive Weather Map New forecast layout! Learn more

10-Day Weather Forecast

Advertisements
Track Severe Weather on mobile